Terminal Aerodrome Forecast
Issued by NWS

Home | Current Version | Previous Version | Text Only | Print | Product List | Glossary On
Versions: 1 2 3 4 5 6 7 8 9 10 11 12
000
FTUS45 KRIW 052300
TAFWRL
TAF
KWRL 052338Z 0600/0624 VRB05KT P6SM SCT080
     FM060200 VRB06KT P6SM VCSH BKN080
     FM061000 34011KT P6SM VCSH BKN040
     FM061400 33012G20KT P6SM -RA BKN022=

USA.gov is the U.S. government's official web portal to all federal, state and local government web resources and services.